Time;durP1;ratioP1;P1;durP2;ratioP2;P2;SDS_P1;SDS_P2;PMS_P1;PMS_P2;Temp;Humidity;BMP_temperature;BMP_pressure;BME280_temperature;BME280_humidity;BME280_pressure;Samples;Min_cycle;Max_cycle;Signal;HPM_P1;HPM_P2
2022/01/07 00:01:03;;;;;;;6.03;4.37;;;4.50;99.90;;;;;;5032484;28;20502;-70
2022/01/07 00:03:29;;;;;;;8.00;4.67;;;4.50;99.90;;;;;;5032676;28;20170;-71
2022/01/07 00:05:55;;;;;;;7.10;4.80;;;4.60;99.90;;;;;;5032036;28;20427;-70
2022/01/07 00:08:21;;;;;;;13.73;5.33;;;4.60;99.90;;;;;;5032406;28;20415;-70
2022/01/07 00:10:47;;;;;;;8.20;5.17;;;4.60;99.90;;;;;;5032347;28;20424;-70
2022/01/07 00:13:13;;;;;;;9.20;5.70;;;4.60;99.90;;;;;;5013980;28;20186;-70
2022/01/07 00:15:39;;;;;;;7.67;4.63;;;4.60;99.90;;;;;;5032076;28;20206;-70
2022/01/07 00:18:07;;;;;;;8.50;5.93;;;4.50;99.90;;;;;;5032608;28;20924;-70
2022/01/07 00:20:33;;;;;;;17.27;5.20;;;4.60;99.90;;;;;;5032590;28;20971;-70
2022/01/07 00:22:59;;;;;;;9.63;5.43;;;4.50;99.90;;;;;;5032283;28;20832;-70
2022/01/07 00:25:24;;;;;;;8.00;5.10;;;4.50;99.90;;;;;;5032240;28;20444;-70
2022/01/07 00:27:51;;;;;;;11.30;6.10;;;4.50;99.90;;;;;;5030263;28;20867;-70
2022/01/07 00:30:18;;;;;;;6.23;4.93;;;4.50;99.90;;;;;;5032136;28;20172;-69
2022/01/07 00:32:44;;;;;;;13.40;5.03;;;4.50;99.90;;;;;;5032113;28;20488;-70
2022/01/07 00:35:10;;;;;;;7.97;5.20;;;4.50;99.90;;;;;;5028447;28;21476;-69
2022/01/07 00:37:36;;;;;;;9.20;4.30;;;4.50;99.90;;;;;;5029418;28;20280;-70
2022/01/07 00:40:05;;;;;;;8.20;4.70;;;4.40;99.90;;;;;;5030215;28;20518;-70
2022/01/07 00:42:31;;;;;;;7.30;4.70;;;4.40;99.90;;;;;;5030555;28;20804;-70
2022/01/07 00:44:56;;;;;;;6.73;5.10;;;4.40;99.90;;;;;;5031580;28;20411;-70
2022/01/07 00:47:22;;;;;;;9.10;6.03;;;4.40;99.90;;;;;;5030914;28;20204;-69
2022/01/07 00:49:47;;;;;;;11.20;5.13;;;4.40;99.90;;;;;;5032527;28;20181;-69
2022/01/07 00:52:13;;;;;;;7.07;4.77;;;4.40;99.90;;;;;;5036270;28;20190;-70
2022/01/07 00:54:38;;;;;;;9.27;5.47;;;4.40;99.90;;;;;;5035631;28;20190;-70
2022/01/07 00:57:04;;;;;;;10.33;5.43;;;4.40;99.90;;;;;;5035118;28;20213;-69
2022/01/07 00:59:29;;;;;;;9.40;4.67;;;4.40;99.90;;;;;;5035873;28;20176;-69
2022/01/07 01:01:55;;;;;;;13.03;6.40;;;4.40;99.90;;;;;;5035871;28;20539;-70
2022/01/07 01:04:21;;;;;;;9.07;4.93;;;4.40;99.90;;;;;;5035844;28;20256;-69
2022/01/07 01:06:46;;;;;;;8.07;4.40;;;4.40;99.90;;;;;;5034848;28;20203;-71
2022/01/07 01:09:12;;;;;;;7.17;5.00;;;4.40;99.90;;;;;;5019578;28;20208;-69
2022/01/07 01:11:38;;;;;;;8.50;4.43;;;4.40;99.90;;;;;;5041517;28;20173;-70
2022/01/07 01:14:04;;;;;;;9.57;5.00;;;4.40;99.90;;;;;;5035607;28;20446;-69
2022/01/07 01:16:30;;;;;;;8.03;5.57;;;4.40;99.90;;;;;;5035170;28;20428;-69
2022/01/07 01:18:56;;;;;;;13.40;4.83;;;4.40;99.90;;;;;;5035682;28;20917;-71
2022/01/07 01:21:22;;;;;;;10.73;4.60;;;4.50;99.90;;;;;;5035146;28;20412;-70
2022/01/07 01:23:50;;;;;;;7.90;4.53;;;4.40;99.90;;;;;;5035351;28;20175;-70
2022/01/07 01:26:18;;;;;;;6.90;4.33;;;4.40;99.90;;;;;;5034938;28;20429;-70
2022/01/07 01:28:44;;;;;;;6.80;4.63;;;4.40;99.90;;;;;;5035229;28;20420;-70
2022/01/07 01:31:10;;;;;;;7.17;4.60;;;4.40;99.90;;;;;;5035083;28;20417;-69
2022/01/07 01:33:36;;;;;;;7.00;4.20;;;4.40;99.90;;;;;;5035161;28;20470;-70
2022/01/07 01:36:02;;;;;;;7.83;5.00;;;4.50;99.90;;;;;;5034854;28;20421;-70
2022/01/07 01:38:29;;;;;;;9.90;5.57;;;4.50;99.90;;;;;;5034774;28;20663;-70
2022/01/07 01:40:55;;;;;;;9.20;4.70;;;4.50;99.90;;;;;;5035380;28;20436;-69
2022/01/07 01:43:20;;;;;;;8.60;5.13;;;4.50;99.90;;;;;;5017519;28;20491;-71
2022/01/07 01:45:46;;;;;;;14.23;4.63;;;4.50;99.90;;;;;;5034436;28;20177;-69
2022/01/07 01:48:12;;;;;;;7.90;4.50;;;4.50;99.90;;;;;;5034705;28;20547;-69
2022/01/07 01:50:37;;;;;;;5.93;4.30;;;4.50;99.90;;;;;;5035136;28;20185;-68
2022/01/07 01:53:03;;;;;;;7.40;4.80;;;4.50;99.90;;;;;;5034985;28;20181;-69
2022/01/07 01:55:29;;;;;;;8.73;5.17;;;4.50;99.90;;;;;;5034535;28;20202;-69
2022/01/07 01:57:56;;;;;;;11.23;5.10;;;4.50;99.90;;;;;;5034632;28;20226;-69
2022/01/07 02:00:25;;;;;;;9.80;5.13;;;4.50;99.90;;;;;;5034421;28;20421;-69
2022/01/07 02:02:51;;;;;;;11.20;5.40;;;4.50;99.90;;;;;;5034600;28;20868;-69
2022/01/07 02:05:16;;;;;;;7.90;4.30;;;4.50;99.90;;;;;;5034282;28;20413;-69
2022/01/07 02:07:43;;;;;;;7.73;4.50;;;4.50;99.90;;;;;;5034018;28;20434;-70
2022/01/07 02:10:11;;;;;;;8.40;5.50;;;4.40;99.90;;;;;;5034234;28;20173;-70
2022/01/07 02:12:38;;;;;;;8.27;5.03;;;4.40;99.90;;;;;;5034190;28;20503;-70
2022/01/07 02:15:04;;;;;;;8.80;4.40;;;4.40;99.90;;;;;;5034427;28;20459;-69
2022/01/07 02:17:30;;;;;;;8.57;5.23;;;4.50;99.90;;;;;;5034125;28;20466;-71
2022/01/07 02:19:56;;;;;;;8.60;4.93;;;4.50;99.90;;;;;;5034173;28;20443;-71
2022/01/07 02:22:26;;;;;;;8.40;4.90;;;4.40;99.90;;;;;;5033910;28;20752;-69
2022/01/07 02:24:52;;;;;;;8.17;4.67;;;4.40;99.90;;;;;;5034011;28;20940;-70
2022/01/07 02:27:19;;;;;;;6.93;4.40;;;4.50;99.90;;;;;;5033463;28;21176;-70
2022/01/07 02:29:46;;;;;;;9.90;5.10;;;4.50;99.90;;;;;;5034167;28;20484;-70
2022/01/07 02:32:12;;;;;;;6.60;5.00;;;4.50;99.90;;;;;;5033870;28;20455;-70
2022/01/07 02:34:37;;;;;;;10.17;4.77;;;4.50;99.90;;;;;;5034210;28;20481;-70
2022/01/07 02:37:04;;;;;;;11.80;5.00;;;4.50;99.90;;;;;;5033432;28;20195;-70
2022/01/07 02:39:30;;;;;;;7.27;4.50;;;4.50;99.90;;;;;;5034216;28;20165;-70
2022/01/07 02:41:56;;;;;;;7.63;4.63;;;4.50;99.90;;;;;;5033384;28;20770;-69
2022/01/07 02:44:21;;;;;;;9.23;4.93;;;4.40;99.90;;;;;;5034123;28;20262;-70
2022/01/07 02:46:47;;;;;;;7.10;5.20;;;4.50;99.90;;;;;;5029361;28;20541;-70
2022/01/07 02:49:16;;;;;;;6.43;4.70;;;4.40;99.90;;;;;;5033634;28;20190;-70
2022/01/07 02:51:42;;;;;;;9.40;4.90;;;4.40;99.90;;;;;;5033305;28;20195;-70
2022/01/07 02:54:08;;;;;;;9.10;4.60;;;4.40;99.90;;;;;;5033645;28;20479;-70
2022/01/07 02:56:35;;;;;;;8.23;5.43;;;4.40;99.90;;;;;;5032848;28;20787;-70
2022/01/07 02:59:01;;;;;;;8.20;5.13;;;4.40;99.90;;;;;;5033415;28;20423;-70
2022/01/07 03:01:26;;;;;;;13.30;5.70;;;4.40;99.90;;;;;;5033463;28;20411;-69
2022/01/07 03:03:52;;;;;;;7.07;4.43;;;4.40;99.90;;;;;;5033230;28;20170;-70
2022/01/07 03:06:18;;;;;;;8.07;4.83;;;4.40;99.90;;;;;;5033007;28;20564;-68
2022/01/07 03:08:48;;;;;;;6.43;4.30;;;4.50;99.90;;;;;;5033677;28;20185;-69
2022/01/07 03:11:14;;;;;;;5.63;5.00;;;4.40;99.90;;;;;;5032984;28;20413;-69
2022/01/07 03:13:40;;;;;;;8.83;5.60;;;4.40;99.90;;;;;;5032923;28;20441;-69
2022/01/07 03:16:06;;;;;;;8.63;5.40;;;4.30;99.90;;;;;;5032945;28;20427;-70
2022/01/07 03:18:32;;;;;;;6.43;5.00;;;4.30;99.90;;;;;;5032976;28;20176;-69
2022/01/07 03:20:59;;;;;;;13.50;5.57;;;4.30;99.90;;;;;;5033355;28;20182;-70
2022/01/07 03:23:25;;;;;;;6.10;4.77;;;4.30;99.90;;;;;;5032880;28;20914;-69
2022/01/07 03:25:51;;;;;;;5.80;4.90;;;4.30;99.90;;;;;;5014813;28;20412;-69
2022/01/07 03:28:16;;;;;;;7.53;5.40;;;4.30;99.90;;;;;;5033123;28;20893;-70
2022/01/07 03:30:42;;;;;;;9.83;5.53;;;4.30;99.90;;;;;;5033718;28;20177;-70
2022/01/07 03:33:08;;;;;;;7.70;5.63;;;4.30;99.90;;;;;;5032965;28;20209;-70
2022/01/07 03:35:33;;;;;;;7.67;5.93;;;4.30;99.90;;;;;;5032747;28;20578;-69
2022/01/07 03:37:59;;;;;;;8.87;4.30;;;4.20;99.90;;;;;;5032784;28;20193;-69
2022/01/07 03:40:25;;;;;;;9.03;5.37;;;4.20;99.90;;;;;;5032338;28;20185;-69
2022/01/07 03:42:51;;;;;;;8.70;5.63;;;4.20;99.90;;;;;;5032556;28;20188;-70
2022/01/07 03:45:18;;;;;;;8.53;5.50;;;4.10;99.90;;;;;;5032711;28;20264;-71
2022/01/07 03:47:44;;;;;;;6.40;4.87;;;4.10;99.90;;;;;;5032138;28;20435;-70
2022/01/07 03:50:15;;;;;;;7.20;5.50;;;4.10;99.90;;;;;;5031792;28;20411;-69
2022/01/07 03:52:41;;;;;;;5.63;4.33;;;4.10;99.90;;;;;;5032370;28;20416;-70
2022/01/07 03:55:13;;;;;;;6.47;4.27;;;4.00;99.90;;;;;;5032144;28;20571;-69
2022/01/07 03:57:39;;;;;;;10.40;5.07;;;4.10;99.90;;;;;;5032159;28;20451;-70
2022/01/07 04:00:08;;;;;;;5.17;4.50;;;4.00;99.90;;;;;;5031964;28;20485;-70
2022/01/07 04:02:33;;;;;;;5.40;5.00;;;4.00;99.90;;;;;;5032228;28;20421;-69
2022/01/07 04:04:59;;;;;;;6.97;5.13;;;4.00;99.90;;;;;;5032623;28;20880;-70
2022/01/07 04:07:25;;;;;;;5.47;4.97;;;4.10;99.90;;;;;;5032002;28;20188;-69
2022/01/07 04:09:51;;;;;;;6.17;4.50;;;4.00;99.90;;;;;;5030644;28;20261;-70
2022/01/07 04:12:16;;;;;;;9.07;5.00;;;4.00;99.90;;;;;;5031579;28;20506;-69
2022/01/07 04:14:42;;;;;;;5.40;4.70;;;4.00;99.90;;;;;;5032014;28;20300;-69
2022/01/07 04:17:07;;;;;;;9.43;5.70;;;3.90;99.90;;;;;;5031587;28;20220;-70
2022/01/07 04:19:34;;;;;;;7.93;5.73;;;3.90;99.90;;;;;;5031955;28;20536;-69
2022/01/07 04:22:00;;;;;;;8.80;5.07;;;3.90;99.90;;;;;;5032189;28;20658;-70
2022/01/07 04:24:26;;;;;;;6.83;4.80;;;4.00;99.90;;;;;;5030830;28;20413;-70
2022/01/07 04:26:51;;;;;;;10.70;5.47;;;4.00;99.90;;;;;;5031931;28;20952;-70
2022/01/07 04:29:17;;;;;;;6.57;4.73;;;4.00;99.90;;;;;;5031335;28;20654;-69
2022/01/07 04:31:42;;;;;;;8.40;4.60;;;4.00;99.90;;;;;;5031743;28;20189;-69
2022/01/07 04:34:08;;;;;;;8.03;4.87;;;4.00;99.90;;;;;;5031729;28;20197;-69
2022/01/07 04:36:34;;;;;;;7.83;4.83;;;4.00;99.90;;;;;;5031290;28;20685;-70
2022/01/07 04:39:00;;;;;;;7.03;5.10;;;4.00;99.90;;;;;;5031972;28;20537;-70
2022/01/07 04:41:25;;;;;;;8.30;4.97;;;4.00;99.90;;;;;;5031727;28;20174;-70
2022/01/07 04:43:51;;;;;;;7.07;4.80;;;4.00;99.90;;;;;;5031915;28;20587;-70
2022/01/07 04:46:16;;;;;;;4.40;3.80;;;4.00;99.90;;;;;;5031657;28;20188;-70
2022/01/07 04:48:42;;;;;;;7.80;4.77;;;4.00;99.90;;;;;;5031841;28;20175;-70
2022/01/07 04:51:08;;;;;;;6.83;4.73;;;4.00;99.90;;;;;;5031396;28;20685;-70
2022/01/07 04:53:33;;;;;;;7.03;4.20;;;4.00;99.90;;;;;;5031740;28;20175;-70
2022/01/07 04:55:59;;;;;;;5.23;4.30;;;4.00;99.90;;;;;;5031207;28;20540;-70
2022/01/07 04:58:25;;;;;;;8.60;4.43;;;4.00;99.90;;;;;;5031444;28;20752;-71
2022/01/07 05:00:51;;;;;;;7.23;5.20;;;4.00;99.90;;;;;;5047222;22;20656;-69
2022/01/07 05:03:17;;;;;;;4.50;4.10;;;3.90;99.90;;;;;;5014480;28;20411;-69
2022/01/07 05:05:47;;;;;;;10.87;4.90;;;3.90;99.90;;;;;;5013081;28;20223;-69
2022/01/07 05:08:15;;;;;;;6.73;4.10;;;4.00;99.90;;;;;;5016707;28;20182;-69
2022/01/07 05:10:41;;;;;;;7.00;4.80;;;4.00;99.90;;;;;;5000674;28;20461;-69
2022/01/07 05:13:07;;;;;;;6.20;4.10;;;4.00;99.90;;;;;;4998862;28;20485;-69
2022/01/07 05:15:33;;;;;;;9.17;5.10;;;4.00;99.90;;;;;;4993916;28;20899;-68
2022/01/07 05:17:58;;;;;;;6.30;4.33;;;4.00;99.90;;;;;;4991671;28;20177;-71
2022/01/07 05:20:24;;;;;;;4.97;4.20;;;4.00;99.90;;;;;;4998815;28;20237;-69
2022/01/07 05:22:49;;;;;;;6.70;4.53;;;4.00;99.90;;;;;;5010913;28;20182;-69
2022/01/07 05:25:16;;;;;;;5.57;3.90;;;4.00;99.90;;;;;;5011086;28;20283;-69
2022/01/07 05:27:42;;;;;;;8.43;4.93;;;4.00;99.90;;;;;;5010756;28;20207;-69
2022/01/07 05:30:09;;;;;;;8.00;4.90;;;4.00;99.90;;;;;;5010967;28;20431;-69
2022/01/07 05:32:35;;;;;;;9.43;5.10;;;4.00;99.90;;;;;;4994013;28;20412;-69
2022/01/07 05:35:01;;;;;;;6.93;5.00;;;4.00;99.90;;;;;;5010885;28;20974;-69
2022/01/07 05:37:26;;;;;;;6.60;4.60;;;4.10;99.90;;;;;;5013863;28;20223;-69
2022/01/07 05:39:52;;;;;;;6.57;4.47;;;4.10;99.90;;;;;;5014589;28;20190;-69
2022/01/07 05:42:18;;;;;;;8.10;4.60;;;4.10;99.90;;;;;;5014343;28;20166;-69
2022/01/07 05:44:44;;;;;;;8.40;5.07;;;4.00;99.90;;;;;;5014757;28;20609;-68
2022/01/07 05:47:09;;;;;;;16.73;6.30;;;4.00;99.90;;;;;;5014332;28;20424;-69
2022/01/07 05:49:35;;;;;;;7.80;4.40;;;4.00;99.90;;;;;;5014044;28;20288;-68
2022/01/07 05:52:00;;;;;;;6.50;4.20;;;3.90;99.90;;;;;;5014392;28;20187;-69
2022/01/07 05:54:26;;;;;;;5.43;4.50;;;4.00;99.90;;;;;;5014426;28;20292;-69
2022/01/07 05:56:51;;;;;;;5.27;3.70;;;4.00;99.90;;;;;;5013907;28;20178;-69
2022/01/07 05:59:17;;;;;;;7.90;5.33;;;4.00;99.90;;;;;;5013961;28;20675;-70
2022/01/07 06:01:42;;;;;;;4.97;4.10;;;4.00;99.90;;;;;;5014561;28;20641;-69
2022/01/07 06:04:08;;;;;;;4.57;3.60;;;4.00;99.90;;;;;;5014436;28;20185;-69
2022/01/07 06:06:33;;;;;;;5.77;4.50;;;4.00;99.90;;;;;;5016411;28;20246;-69
2022/01/07 06:08:59;;;;;;;5.33;3.77;;;4.00;99.90;;;;;;5019995;28;20194;-70
2022/01/07 06:11:24;;;;;;;5.30;4.23;;;4.00;99.90;;;;;;5019972;28;20202;-69
2022/01/07 06:13:50;;;;;;;7.67;4.63;;;4.00;99.90;;;;;;5020643;28;20191;-69
2022/01/07 06:16:15;;;;;;;4.60;3.60;;;4.00;99.90;;;;;;5015450;28;20276;-70
2022/01/07 06:18:59;;;;;;;4.83;4.13;;;4.00;99.90;;;;;;5021172;28;20182;-69
2022/01/07 06:21:25;;;;;;;8.00;4.87;;;3.90;99.90;;;;;;5018431;28;20566;-69
2022/01/07 06:23:51;;;;;;;5.00;4.00;;;4.00;99.90;;;;;;5020791;28;20408;-69
2022/01/07 06:26:17;;;;;;;6.07;4.00;;;4.00;99.90;;;;;;5019312;28;20447;-69
2022/01/07 06:28:43;;;;;;;7.40;4.00;;;4.00;99.90;;;;;;5015044;28;20193;-69
2022/01/07 06:31:09;;;;;;;5.10;3.90;;;4.00;99.90;;;;;;5005898;28;20829;-73
2022/01/07 06:33:35;;;;;;;3.90;3.50;;;4.00;99.90;;;;;;5006780;28;20176;-69
2022/01/07 06:36:00;;;;;;;5.37;4.73;;;4.00;99.90;;;;;;5007691;28;20456;-68
2022/01/07 06:38:26;;;;;;;3.93;3.50;;;3.90;99.90;;;;;;5010840;28;20184;-71
2022/01/07 06:40:51;;;;;;;7.80;4.40;;;3.90;99.90;;;;;;5009726;28;20212;-68
2022/01/07 06:43:17;;;;;;;4.90;3.77;;;4.00;99.90;;;;;;5007320;28;20184;-68
2022/01/07 06:45:43;;;;;;;4.17;3.80;;;4.00;99.90;;;;;;5013204;28;20186;-68
2022/01/07 06:48:08;;;;;;;4.33;3.93;;;4.00;99.90;;;;;;5012382;28;20694;-69
2022/01/07 06:50:34;;;;;;;6.03;4.30;;;4.00;99.90;;;;;;5013322;28;20249;-69
2022/01/07 06:53:00;;;;;;;4.20;3.80;;;4.00;99.90;;;;;;4992419;28;20456;-69
2022/01/07 06:55:25;;;;;;;4.20;3.60;;;4.00;99.90;;;;;;5013118;28;20206;-69
2022/01/07 06:58:01;;;;;;;;;;;;;;;;;;;;;
2022/01/07 07:00:30;;;;;;;5.57;3.60;;;3.80;99.90;;;;;;5013206;28;20214;-70
2022/01/07 07:02:59;;;;;;;4.60;4.20;;;3.90;99.90;;;;;;4987809;28;20957;-67
2022/01/07 07:05:25;;;;;;;4.03;3.53;;;3.90;99.90;;;;;;5006744;28;20532;-69
2022/01/07 07:07:51;;;;;;;5.37;3.80;;;3.90;99.90;;;;;;5012702;28;20500;-69
2022/01/07 07:10:17;;;;;;;5.40;4.30;;;3.90;99.90;;;;;;5011626;28;20286;-69
2022/01/07 07:12:42;;;;;;;5.70;4.53;;;4.00;99.90;;;;;;5009646;28;20913;-67
2022/01/07 07:15:08;;;;;;;3.90;3.50;;;4.00;99.90;;;;;;5008008;28;20219;-68
2022/01/07 07:17:34;;;;;;;5.67;3.90;;;4.00;99.90;;;;;;5011523;28;20205;-68
2022/01/07 07:20:00;;;;;;;4.77;3.70;;;4.10;99.90;;;;;;5000216;28;20449;-69
2022/01/07 07:22:26;;;;;;;5.50;3.87;;;4.10;99.90;;;;;;5003733;28;20225;-68
2022/01/07 07:24:52;;;;;;;4.17;3.77;;;4.10;99.90;;;;;;5003880;28;20936;-68
2022/01/07 07:27:17;;;;;;;7.30;4.80;;;4.10;99.90;;;;;;5000111;28;20220;-68
2022/01/07 07:29:43;;;;;;;5.63;4.57;;;4.10;99.90;;;;;;4994709;28;20274;-70
2022/01/07 07:32:10;;;;;;;6.27;4.63;;;4.00;99.90;;;;;;4992774;28;20354;-68
2022/01/07 07:37:05;;;;;;;9.67;5.27;;;4.10;99.90;;;;;;4991165;28;20953;-68
2022/01/07 07:39:31;;;;;;;5.60;4.83;;;4.10;99.90;;;;;;4992133;28;20438;-68
2022/01/07 07:41:56;;;;;;;6.17;5.00;;;4.00;99.90;;;;;;5006579;28;20468;-69
2022/01/07 07:44:22;;;;;;;9.00;5.10;;;4.10;99.90;;;;;;5011525;28;20179;-69
2022/01/07 07:46:48;;;;;;;7.47;5.03;;;4.10;99.90;;;;;;5009767;28;20434;-69
2022/01/07 07:49:14;;;;;;;8.47;5.23;;;4.10;99.90;;;;;;5010388;28;20231;-70
2022/01/07 07:51:40;;;;;;;6.57;5.00;;;4.10;99.90;;;;;;5011676;28;20182;-69
2022/01/07 07:54:08;;;;;;;8.73;5.30;;;4.10;99.90;;;;;;4992665;28;20476;-70
2022/01/07 07:56:34;;;;;;;5.73;4.80;;;4.10;99.90;;;;;;5001053;28;20197;-69
2022/01/07 07:59:00;;;;;;;7.30;4.73;;;4.10;99.90;;;;;;5006493;28;20451;-70
2022/01/07 08:01:27;;;;;;;5.50;4.80;;;4.10;99.90;;;;;;5007666;28;20460;-70
2022/01/07 08:03:52;;;;;;;8.27;4.60;;;4.20;99.90;;;;;;5008372;28;20417;-69
2022/01/07 08:06:18;;;;;;;5.37;4.70;;;4.20;99.90;;;;;;5008620;28;21029;-70
2022/01/07 08:08:45;;;;;;;7.67;4.77;;;4.20;99.90;;;;;;5008460;28;20621;-69
2022/01/07 08:11:12;;;;;;;5.23;4.73;;;4.20;99.90;;;;;;5006677;28;20208;-70
2022/01/07 08:16:23;;;;;;;5.67;4.73;;;4.20;99.90;;;;;;5008381;28;20839;-69
2022/01/07 08:18:53;;;;;;;8.23;4.60;;;4.20;99.90;;;;;;5008444;28;20515;-69
2022/01/07 08:21:20;;;;;;;5.23;4.40;;;4.20;99.90;;;;;;5008753;28;20924;-69
2022/01/07 08:23:46;;;;;;;4.87;4.37;;;4.20;99.90;;;;;;5008537;28;20423;-67
2022/01/07 08:26:14;;;;;;;7.10;4.27;;;4.30;99.90;;;;;;5006723;28;21048;-69
2022/01/07 08:28:45;;;;;;;4.77;4.10;;;4.30;99.90;;;;;;5008202;28;20425;-71
2022/01/07 08:31:25;;;;;;;5.43;4.53;;;4.30;99.90;;;;;;5008546;28;20460;-70
2022/01/07 08:36:36;;;;;;;8.60;4.77;;;4.20;99.90;;;;;;5007801;28;20854;-70
2022/01/07 08:39:06;;;;;;;8.23;4.27;;;4.30;99.90;;;;;;5008174;28;20409;-68
2022/01/07 08:41:32;;;;;;;7.73;4.73;;;4.30;99.90;;;;;;5008248;28;20484;-70
2022/01/07 08:43:58;;;;;;;5.77;4.53;;;4.30;99.90;;;;;;5008227;28;20426;-69
2022/01/07 08:46:23;;;;;;;8.07;4.33;;;4.30;99.90;;;;;;5007807;28;20414;-68
2022/01/07 08:48:49;;;;;;;4.43;3.90;;;4.30;99.90;;;;;;5007990;28;20272;-69
2022/01/07 08:51:15;;;;;;;4.53;4.13;;;4.40;99.90;;;;;;5022012;28;20218;-69
2022/01/07 08:53:41;;;;;;;6.83;4.87;;;4.40;99.90;;;;;;5005625;28;20196;-69
2022/01/07 08:56:07;;;;;;;5.00;4.50;;;4.40;99.90;;;;;;4990047;28;20465;-68
2022/01/07 08:58:33;;;;;;;6.00;4.23;;;4.40;99.90;;;;;;5007873;28;20205;-68
2022/01/07 09:00:59;;;;;;;8.63;4.53;;;4.50;99.90;;;;;;5007863;28;20873;-68
2022/01/07 09:03:25;;;;;;;5.47;3.70;;;4.50;99.90;;;;;;5008169;28;20441;-68
2022/01/07 09:05:51;;;;;;;4.80;4.30;;;4.50;99.90;;;;;;5007493;28;20224;-68
2022/01/07 09:08:17;;;;;;;6.73;4.37;;;4.50;99.90;;;;;;5007503;28;20487;-69
2022/01/07 09:10:43;;;;;;;5.60;3.93;;;4.60;99.90;;;;;;5007814;28;20437;-69
2022/01/07 09:13:09;;;;;;;4.80;3.80;;;4.60;99.90;;;;;;5010326;28;20190;-69
2022/01/07 09:15:36;;;;;;;5.53;3.90;;;4.60;99.90;;;;;;5010346;28;20558;-68
2022/01/07 09:18:12;;;;;;;4.87;3.50;;;4.60;99.90;;;;;;5011254;28;20492;-69
2022/01/07 09:20:40;;;;;;;5.20;4.23;;;4.60;99.90;;;;;;5011261;28;20445;-69
2022/01/07 09:23:06;;;;;;;6.33;4.20;;;4.70;99.90;;;;;;5011648;28;21078;-68
2022/01/07 09:25:32;;;;;;;5.73;4.07;;;4.70;99.90;;;;;;5011424;28;20429;-69
2022/01/07 09:27:57;;;;;;;5.33;4.00;;;4.80;99.90;;;;;;5011571;28;20190;-69
2022/01/07 09:30:23;;;;;;;3.87;3.47;;;4.80;99.90;;;;;;5011184;28;20211;-68
2022/01/07 09:32:48;;;;;;;6.00;4.23;;;4.90;99.90;;;;;;5011174;28;20266;-68
2022/01/07 09:35:16;;;;;;;6.47;3.40;;;4.90;99.90;;;;;;5010943;28;20202;-67
2022/01/07 09:37:42;;;;;;;4.47;3.70;;;4.90;99.90;;;;;;5010983;28;20190;-69
2022/01/07 09:40:09;;;;;;;5.73;4.70;;;4.90;99.90;;;;;;5011752;28;20989;-68
2022/01/07 09:42:34;;;;;;;4.90;3.90;;;4.90;99.90;;;;;;5011486;28;20427;-68
2022/01/07 09:45:00;;;;;;;5.67;3.50;;;4.90;99.90;;;;;;5011410;28;20973;-67
2022/01/07 09:47:27;;;;;;;4.83;4.33;;;4.90;99.90;;;;;;5010978;28;20184;-69
2022/01/07 09:49:53;;;;;;;5.43;4.63;;;4.80;99.90;;;;;;5019748;28;20221;-67
2022/01/07 09:52:19;;;;;;;4.57;4.17;;;4.80;99.90;;;;;;5015859;28;21227;-68
2022/01/07 09:54:46;;;;;;;5.93;3.57;;;4.80;99.90;;;;;;5010099;28;20475;-69
2022/01/07 09:57:12;;;;;;;4.60;4.10;;;4.80;99.90;;;;;;5007314;28;20188;-68
2022/01/07 09:59:37;;;;;;;5.97;4.63;;;4.80;99.90;;;;;;5009691;28;21032;-69
2022/01/07 10:02:07;;;;;;;6.10;4.83;;;4.80;99.90;;;;;;5001911;28;20176;-67
2022/01/07 10:04:41;;;;;;;4.07;3.77;;;4.90;99.90;;;;;;5011336;28;20188;-69
2022/01/07 10:07:23;;;;;;;4.40;4.00;;;4.90;99.90;;;;;;5010667;28;20468;-68
2022/01/07 10:10:14;;;;;;;5.57;4.30;;;4.90;99.90;;;;;;5010867;28;20449;-68
2022/01/07 10:13:00;;;;;;;4.07;3.70;;;4.90;99.90;;;;;;5009790;28;20949;-69
2022/01/07 10:15:28;;;;;;;4.67;4.10;;;4.90;99.90;;;;;;5009925;28;20533;-68
2022/01/07 10:18:01;;;;;;;5.27;3.80;;;4.90;99.90;;;;;;5010632;28;20429;-69
2022/01/07 10:20:42;;;;;;;4.40;3.60;;;4.90;99.90;;;;;;5008020;28;20454;-69
2022/01/07 10:23:11;;;;;;;4.50;3.67;;;4.90;99.90;;;;;;5005724;28;20413;-68
2022/01/07 10:25:39;;;;;;;3.60;3.10;;;4.90;99.90;;;;;;5004338;28;20528;-69
2022/01/07 10:28:08;;;;;;;5.37;4.53;;;5.00;99.90;;;;;;4994117;28;20421;-68
2022/01/07 10:30:46;;;;;;;4.30;3.80;;;5.00;99.90;;;;;;5007674;28;20813;-67
2022/01/07 10:33:18;;;;;;;5.53;3.47;;;4.90;99.90;;;;;;5010608;28;20418;-68
2022/01/07 10:35:48;;;;;;;4.10;3.70;;;4.90;99.90;;;;;;5007755;28;20465;-68
2022/01/07 10:38:19;;;;;;;4.07;3.50;;;4.90;99.90;;;;;;5005401;28;20431;-69
2022/01/07 10:40:47;;;;;;;6.30;3.50;;;5.00;99.90;;;;;;5008452;28;21234;-69
2022/01/07 10:43:20;;;;;;;4.17;2.90;;;4.90;99.90;;;;;;5006030;28;20509;-70
2022/01/07 10:45:49;;;;;;;6.63;3.47;;;4.90;99.90;;;;;;5006360;28;20433;-69
2022/01/07 10:48:16;;;;;;;3.27;3.00;;;5.00;99.90;;;;;;4995244;28;20426;-69
2022/01/07 10:50:49;;;;;;;4.20;3.03;;;4.90;99.90;;;;;;5006158;28;20481;-69
2022/01/07 10:53:21;;;;;;;3.23;2.90;;;5.00;99.90;;;;;;5006226;28;20452;-69
2022/01/07 10:56:08;;;;;;;3.90;3.00;;;4.90;99.90;;;;;;5006844;28;20473;-69
2022/01/07 10:58:43;;;;;;;7.23;3.10;;;5.00;99.90;;;;;;5006354;28;20418;-69
2022/01/07 11:01:38;;;;;;;3.40;2.90;;;5.10;99.90;;;;;;5009146;28;20458;-68
2022/01/07 11:04:10;;;;;;;2.73;2.53;;;5.10;99.90;;;;;;4982892;28;20942;-69
2022/01/07 11:06:37;;;;;;;3.90;3.20;;;5.20;99.90;;;;;;5009449;28;20444;-68
2022/01/07 11:09:07;;;;;;;3.83;3.30;;;5.30;99.90;;;;;;5009527;28;20501;-68
2022/01/07 11:11:33;;;;;;;11.70;4.45;;;5.40;99.90;;;;;;5005530;28;20442;-69
2022/01/07 11:14:07;;;;;;;3.57;3.20;;;5.60;99.90;;;;;;5009064;28;20234;-68
2022/01/07 11:16:35;;;;;;;3.33;3.03;;;5.60;99.90;;;;;;5005890;28;20426;-69
2022/01/07 11:19:01;;;;;;;4.50;2.80;;;5.60;99.90;;;;;;5010017;28;20415;-70
2022/01/07 11:21:27;;;;;;;3.37;3.00;;;5.60;99.90;;;;;;5009829;28;21158;-69
2022/01/07 11:23:52;;;;;;;3.90;3.03;;;5.70;99.90;;;;;;5011057;28;20454;-69
2022/01/07 11:26:18;;;;;;;3.90;3.50;;;5.60;99.90;;;;;;5009301;28;20207;-70
2022/01/07 11:28:59;;;;;;;3.60;3.30;;;5.60;99.90;;;;;;5008522;28;20214;-69
2022/01/07 11:31:25;;;;;;;4.40;2.70;;;5.60;99.90;;;;;;5009343;28;20183;-69
2022/01/07 11:34:19;;;;;;;2.80;2.50;;;5.60;99.90;;;;;;5008023;28;21050;-68
2022/01/07 11:36:45;;;;;;;3.50;2.67;;;5.60;99.90;;;;;;5008182;28;20907;-69
2022/01/07 11:39:10;;;;;;;3.30;2.40;;;5.60;99.90;;;;;;5007296;28;20414;-69
2022/01/07 11:41:48;;;;;;;3.30;3.00;;;5.60;99.90;;;;;;5007602;28;20793;-68
2022/01/07 11:44:20;;;;;;;3.10;2.80;;;5.60;99.90;;;;;;5003023;28;20555;-69
2022/01/07 11:46:46;;;;;;;3.37;3.17;;;5.60;99.90;;;;;;5006837;28;20419;-68
2022/01/07 11:49:31;;;;;;;2.93;2.70;;;5.70;99.90;;;;;;5012334;28;20474;-70
2022/01/07 11:51:57;;;;;;;2.93;2.60;;;5.70;99.90;;;;;;5016894;28;20241;-69
2022/01/07 11:54:22;;;;;;;3.07;2.87;;;5.70;99.90;;;;;;5008886;28;20489;-69
2022/01/07 11:56:49;;;;;;;3.47;3.20;;;5.60;99.90;;;;;;5000745;28;20189;-69
2022/01/07 11:59:19;;;;;;;3.30;3.00;;;5.60;99.90;;;;;;5008114;28;20214;-69
2022/01/07 12:01:55;;;;;;;3.23;3.00;;;5.50;99.90;;;;;;5007824;28;20441;-68
2022/01/07 12:04:27;;;;;;;3.00;2.70;;;5.50;99.90;;;;;;4994853;28;20427;-67
2022/01/07 12:06:53;;;;;;;3.43;3.20;;;5.50;99.90;;;;;;5008876;28;20458;-67
2022/01/07 12:09:20;;;;;;;3.87;3.07;;;5.60;99.90;;;;;;5008557;28;20997;-67
2022/01/07 12:12:13;;;;;;;4.43;3.43;;;5.60;99.90;;;;;;5005049;28;20905;-66
2022/01/07 12:14:50;;;;;;;3.47;3.17;;;5.70;99.90;;;;;;5003567;28;20461;-69
2022/01/07 12:17:18;;;;;;;2.77;2.57;;;5.70;99.90;;;;;;5008152;28;20511;-69
2022/01/07 12:19:50;;;;;;;3.37;3.10;;;5.80;99.90;;;;;;5004780;28;20447;-69
2022/01/07 12:22:16;;;;;;;4.20;2.70;;;5.80;99.90;;;;;;5006251;28;21317;-70
2022/01/07 12:24:44;;;;;;;3.70;3.30;;;5.80;99.90;;;;;;5008657;28;20449;-68
2022/01/07 12:27:20;;;;;;;3.20;2.90;;;5.80;99.90;;;;;;5007964;28;20419;-68
2022/01/07 12:29:52;;;;;;;3.43;2.90;;;5.80;99.90;;;;;;5004528;28;20969;-73
2022/01/07 12:32:19;;;;;;;3.23;2.93;;;5.70;99.90;;;;;;5006628;28;20430;-68
2022/01/07 12:34:47;;;;;;;3.17;2.87;;;5.80;99.90;;;;;;5007085;28;20548;-69
2022/01/07 12:37:15;;;;;;;5.50;3.10;;;5.80;99.90;;;;;;5007406;28;20938;-69
2022/01/07 12:39:46;;;;;;;2.83;2.50;;;5.80;99.90;;;;;;5008476;28;21038;-69
2022/01/07 12:42:12;;;;;;;4.20;3.30;;;5.90;99.90;;;;;;5006086;28;20832;-69
2022/01/07 12:44:54;;;;;;;3.60;3.17;;;5.90;99.90;;;;;;5035533;22;20508;-66
2022/01/07 12:47:22;;;;;;;4.03;3.10;;;5.90;99.90;;;;;;5009692;28;20425;-67
2022/01/07 12:49:50;;;;;;;2.90;2.70;;;5.90;99.90;;;;;;5035808;28;20524;-68
2022/01/07 12:52:37;;;;;;;3.83;2.87;;;5.90;99.90;;;;;;5035226;28;20425;-67
2022/01/07 12:55:09;;;;;;;4.43;3.00;;;6.00;99.90;;;;;;5033834;28;20447;-67
2022/01/07 12:57:42;;;;;;;4.00;2.83;;;5.90;99.90;;;;;;5033583;28;20413;-67
2022/01/07 13:00:23;;;;;;;4.20;2.87;;;6.00;99.90;;;;;;5031839;28;20429;-67
2022/01/07 13:02:57;;;;;;;4.10;3.50;;;6.00;99.90;;;;;;5030169;28;20428;-66
2022/01/07 13:05:31;;;;;;;5.43;3.77;;;6.00;99.90;;;;;;5032335;28;20441;-66
2022/01/07 13:07:58;;;;;;;4.43;3.40;;;6.00;99.90;;;;;;5023638;28;20486;-66